BAW255G EGLL-TBPB
Flight info
| Callsign | BAW255G |
|---|---|
| Flight time | N/A |
| Altitude | 34000 |
| Route | GASGU N514 ADKIK DCT JOZMA DCT ARKIL/M083F340 DCT SOMAX DCT 4830N02000W 44N030W/M083F360 38N040W 3330N04500W 28N050W/M083F380 20N055W DCT FISST/N0480F380 DCT BGI |
| Aircraft | B77W/H-SDE1E3FGHIJ3J4J5J6M1M2P2RWXYZ/LB1D1 |
Departure
| Time | 2026-05-04 09:14 |
|---|---|
| Airport | London Heathrow Airport (EGLL) |
Arrival
| Time | N/A |
|---|---|
| Airport | Grantley Adams International Airport (TBPB) |
| Time | Latitude | Longitude | Altitude | Speed | Heading |
|---|---|---|---|---|---|
| 2026-05-04 08:42 | 51.46981 | -0.47490 | 94 ft | 0 kts | 269° |
| 2026-05-04 08:42 | 51.46982 | -0.47492 | 94 ft | 0 kts | 270° |
| 2026-05-04 09:02 | 51.46982 | -0.47473 | 95 ft | 4 kts | 270° |
| 2026-05-04 09:02 | 51.46982 | -0.47429 | 92 ft | 4 kts | 270° |
| 2026-05-04 09:02 | 51.46982 | -0.47395 | 92 ft | 4 kts | 263° |
| 2026-05-04 09:02 | 51.46990 | -0.47360 | 90 ft | 4 kts | 211° |
| 2026-05-04 09:03 | 51.47013 | -0.47351 | 91 ft | 4 kts | 180° |
| 2026-05-04 09:03 | 51.47039 | -0.47352 | 90 ft | 2 kts | 180° |
| 2026-05-04 09:03 | 51.47042 | -0.47352 | 90 ft | 0 kts | 180° |
| 2026-05-04 09:07 | 51.46722 | -0.47349 | 92 ft | 0 kts | 180° |
| 2026-05-04 09:08 | 51.46679 | -0.47342 | 93 ft | 8 kts | 160° |
| 2026-05-04 09:08 | 51.46659 | -0.47279 | 95 ft | 6 kts | 98° |
| 2026-05-04 09:08 | 51.46657 | -0.47197 | 94 ft | 11 kts | 91° |
| 2026-05-04 09:08 | 51.46657 | -0.47034 | 94 ft | 17 kts | 90° |
| 2026-05-04 09:09 | 51.46657 | -0.46836 | 94 ft | 19 kts | 90° |
| 2026-05-04 09:09 | 51.46657 | -0.46625 | 94 ft | 19 kts | 89° |
| 2026-05-04 09:09 | 51.46660 | -0.46392 | 95 ft | 24 kts | 90° |
| 2026-05-04 09:09 | 51.46660 | -0.46092 | 91 ft | 28 kts | 89° |
| 2026-05-04 09:10 | 51.46661 | -0.45785 | 91 ft | 27 kts | 89° |
| 2026-05-04 09:10 | 51.46662 | -0.45499 | 91 ft | 25 kts | 90° |
| 2026-05-04 09:10 | 51.46663 | -0.45234 | 91 ft | 23 kts | 90° |
| 2026-05-04 09:10 | 51.46663 | -0.44989 | 91 ft | 21 kts | 89° |
| 2026-05-04 09:11 | 51.46665 | -0.44761 | 91 ft | 20 kts | 89° |
| 2026-05-04 09:11 | 51.46666 | -0.44550 | 91 ft | 19 kts | 90° |
| 2026-05-04 09:11 | 51.46666 | -0.44339 | 91 ft | 18 kts | 90° |
| 2026-05-04 09:11 | 51.46666 | -0.44159 | 91 ft | 12 kts | 90° |
| 2026-05-04 09:12 | 51.46655 | -0.44069 | 94 ft | 7 kts | 132° |
| 2026-05-04 09:12 | 51.46606 | -0.44051 | 94 ft | 10 kts | 177° |
| 2026-05-04 09:14 | 51.46458 | -0.49879 | 738 ft | 196 kts | 270° |
| 2026-05-04 09:14 | 51.46416 | -0.52104 | 1377 ft | 199 kts | 268° |
| 2026-05-04 09:14 | 51.46370 | -0.54372 | 1793 ft | 213 kts | 269° |
| 2026-05-04 09:14 | 51.46355 | -0.56832 | 2153 ft | 227 kts | 269° |
| 2026-05-04 09:15 | 51.46256 | -0.59446 | 2464 ft | 246 kts | 265° |
| 2026-05-04 09:15 | 51.46218 | -0.62275 | 2852 ft | 257 kts | 271° |
| 2026-05-04 09:15 | 51.46072 | -0.65166 | 3391 ft | 263 kts | 255° |
| 2026-05-04 09:15 | 51.45564 | -0.67986 | 4043 ft | 264 kts | 256° |
| 2026-05-04 09:17 | 51.41032 | -0.88416 | 9196 ft | 275 kts | 209° |
| 2026-05-04 09:18 | 51.39447 | -0.90114 | 9763 ft | 276 kts | 226° |
| 2026-05-04 09:18 | 51.38292 | -0.92583 | 10219 ft | 282 kts | 236° |
| 2026-05-04 09:18 | 51.37147 | -0.95275 | 10422 ft | 303 kts | 234° |
| 2026-05-04 09:18 | 51.35894 | -0.98160 | 10595 ft | 326 kts | 234° |
| 2026-05-04 09:19 | 51.34563 | -1.01193 | 10774 ft | 348 kts | 234° |
| 2026-05-04 09:19 | 51.33139 | -1.04423 | 11204 ft | 361 kts | 233° |
| 2026-05-04 09:19 | 51.31657 | -1.07729 | 11868 ft | 369 kts | 233° |
| 2026-05-04 09:19 | 51.30151 | -1.11079 | 12762 ft | 373 kts | 233° |
| 2026-05-04 09:20 | 51.28630 | -1.14462 | 13656 ft | 377 kts | 233° |
| 2026-05-04 09:20 | 51.27090 | -1.17885 | 14436 ft | 382 kts | 233° |
| 2026-05-04 09:20 | 51.25529 | -1.21350 | 15220 ft | 386 kts | 233° |
| 2026-05-04 09:20 | 51.23952 | -1.24846 | 16021 ft | 390 kts | 233° |
| 2026-05-04 09:21 | 51.22358 | -1.28373 | 16811 ft | 394 kts | 233° |
| 2026-05-04 09:21 | 51.20742 | -1.31941 | 17595 ft | 398 kts | 233° |
| 2026-05-04 09:21 | 51.19116 | -1.35527 | 18359 ft | 402 kts | 233° |
| 2026-05-04 09:21 | 51.17465 | -1.39162 | 19032 ft | 406 kts | 233° |
| 2026-05-04 09:22 | 51.15800 | -1.42820 | 19751 ft | 409 kts | 233° |
| 2026-05-04 09:22 | 51.14145 | -1.46453 | 20426 ft | 412 kts | 233° |
| 2026-05-04 09:22 | 51.12456 | -1.50156 | 21132 ft | 414 kts | 233° |
| 2026-05-04 09:22 | 51.10737 | -1.53918 | 21841 ft | 417 kts | 233° |
| 2026-05-04 09:23 | 51.09042 | -1.57623 | 22511 ft | 420 kts | 233° |
| 2026-05-04 09:23 | 51.07320 | -1.61383 | 23170 ft | 423 kts | 233° |
| 2026-05-04 09:23 | 51.05578 | -1.65179 | 23759 ft | 426 kts | 233° |
| 2026-05-04 09:23 | 51.03819 | -1.69007 | 24309 ft | 429 kts | 232° |
| 2026-05-04 09:25 | 50.91307 | -1.96253 | 27736 ft | 449 kts | 236° |
| 2026-05-04 09:25 | 50.89794 | -2.00613 | 28154 ft | 454 kts | 242° |
| 2026-05-04 09:26 | 50.88521 | -2.05218 | 28586 ft | 458 kts | 245° |
| 2026-05-04 09:26 | 50.87514 | -2.10030 | 28979 ft | 463 kts | 251° |
| 2026-05-04 09:26 | 50.86665 | -2.14967 | 29336 ft | 466 kts | 251° |
| 2026-05-04 09:26 | 50.85818 | -2.19957 | 29741 ft | 468 kts | 251° |
| 2026-05-04 09:27 | 50.84969 | -2.24915 | 30235 ft | 466 kts | 251° |
| 2026-05-04 09:27 | 50.84110 | -2.29850 | 30675 ft | 464 kts | 251° |
| 2026-05-04 09:27 | 50.83242 | -2.34775 | 31043 ft | 465 kts | 251° |
| 2026-05-04 09:27 | 50.82361 | -2.39727 | 31164 ft | 471 kts | 251° |
| 2026-05-04 09:28 | 50.81464 | -2.44743 | 31379 ft | 475 kts | 251° |
| 2026-05-04 09:28 | 50.80579 | -2.49691 | 31780 ft | 473 kts | 252° |
| 2026-05-04 09:28 | 50.79696 | -2.54698 | 32194 ft | 472 kts | 253° |
| 2026-05-04 09:28 | 50.78986 | -2.59794 | 32512 ft | 474 kts | 257° |
| 2026-05-04 09:29 | 50.78389 | -2.64921 | 32832 ft | 475 kts | 258° |
| 2026-05-04 09:29 | 50.77821 | -2.70067 | 33160 ft | 475 kts | 258° |
| 2026-05-04 09:29 | 50.77254 | -2.75215 | 33496 ft | 475 kts | 258° |
| 2026-05-04 09:29 | 50.76676 | -2.80360 | 33817 ft | 475 kts | 258° |
| 2026-05-04 09:30 | 50.76084 | -2.85516 | 33952 ft | 479 kts | 258° |
| 2026-05-04 09:30 | 50.75473 | -2.90714 | 34016 ft | 483 kts | 259° |
| 2026-05-04 09:30 | 50.74233 | -3.01168 | 34006 ft | 480 kts | 258° |
| 2026-05-04 09:31 | 50.72994 | -3.11473 | 34012 ft | 477 kts | 258° |
| 2026-05-04 09:31 | 50.71757 | -3.21687 | 34026 ft | 478 kts | 258° |
| 2026-05-04 09:32 | 50.70500 | -3.31991 | 34030 ft | 479 kts | 258° |
| 2026-05-04 09:34 | 50.65365 | -3.73325 | 34028 ft | 480 kts | 258° |
| 2026-05-04 09:34 | 50.64033 | -3.83584 | 34014 ft | 481 kts | 258° |
| 2026-05-04 09:35 | 50.62922 | -3.93994 | 34009 ft | 483 kts | 264° |
| 2026-05-04 09:35 | 50.62852 | -4.04594 | 34019 ft | 485 kts | 271° |
| 2026-05-04 09:37 | 50.63899 | -4.47240 | 34011 ft | 489 kts | 271° |
| 2026-05-04 09:38 | 50.64111 | -4.57923 | 34003 ft | 490 kts | 271° |
| 2026-05-04 09:38 | 50.64316 | -4.68663 | 34009 ft | 490 kts | 271° |
| 2026-05-04 09:39 | 50.64525 | -4.79402 | 34010 ft | 490 kts | 271° |
| 2026-05-04 09:39 | 50.64699 | -4.90156 | 34010 ft | 491 kts | 271° |
| 2026-05-04 09:40 | 50.64868 | -5.00929 | 33992 ft | 492 kts | 271° |
| 2026-05-04 09:40 | 50.65036 | -5.11698 | 33995 ft | 492 kts | 271° |
| 2026-05-04 09:42 | 50.65605 | -5.54753 | 34005 ft | 491 kts | 271° |
| 2026-05-04 09:43 | 50.65719 | -5.65534 | 34014 ft | 491 kts | 271° |
| 2026-05-04 09:43 | 50.65827 | -5.76324 | 34003 ft | 492 kts | 271° |
| 2026-05-04 09:44 | 50.65926 | -5.87037 | 34012 ft | 492 kts | 271° |
| 2026-05-04 09:46 | 50.66199 | -6.28423 | 34011 ft | 494 kts | 271° |
| 2026-05-04 09:46 | 50.66248 | -6.39259 | 34001 ft | 495 kts | 271° |
| 2026-05-04 09:47 | 50.66290 | -6.50109 | 33999 ft | 495 kts | 271° |
| 2026-05-04 09:49 | 50.66346 | -6.93569 | 34017 ft | 496 kts | 270° |
| 2026-05-04 09:51 | 50.66259 | -7.31676 | 34019 ft | 500 kts | 271° |
| 2026-05-04 09:51 | 50.66211 | -7.42667 | 34023 ft | 502 kts | 271° |
| 2026-05-04 09:52 | 50.66155 | -7.53683 | 34024 ft | 503 kts | 271° |
| 2026-05-04 09:52 | 50.66088 | -7.64741 | 34029 ft | 504 kts | 271° |
| 2026-05-04 09:53 | 50.66009 | -7.75780 | 34029 ft | 504 kts | 271° |
| 2026-05-04 09:53 | 50.65920 | -7.86776 | 34036 ft | 504 kts | 271° |
| 2026-05-04 09:54 | 50.65822 | -7.97824 | 34029 ft | 504 kts | 271° |
| 2026-05-04 09:54 | 50.65373 | -8.08859 | 34035 ft | 505 kts | 266° |
| 2026-05-04 09:55 | 50.64609 | -8.19865 | 34039 ft | 505 kts | 265° |